createdAt,value
2018-06-21T00:00:50.137Z,17.78
2018-06-21T00:02:50.172Z,17.71
2018-06-21T00:04:50.373Z,17.67
2018-06-21T00:06:50.639Z,17.61
2018-06-21T00:08:50.713Z,17.59
2018-06-21T00:10:50.752Z,17.50
2018-06-21T00:12:50.825Z,17.43
2018-06-21T00:14:50.843Z,17.42
2018-06-21T00:16:49.997Z,17.39
2018-06-21T00:18:50.048Z,17.39
2018-06-21T00:20:50.097Z,17.25
2018-06-21T00:22:50.199Z,17.25
2018-06-21T00:24:50.249Z,17.26
2018-06-21T00:26:50.385Z,17.28
2018-06-21T00:28:50.442Z,17.28
2018-06-21T00:30:50.431Z,17.25
2018-06-21T00:32:50.525Z,17.23
2018-06-21T00:34:50.801Z,17.25
2018-06-21T00:36:50.041Z,17.23
2018-06-21T00:38:50.097Z,17.20
2018-06-21T00:40:50.115Z,17.14
2018-06-21T00:42:50.140Z,17.08
2018-06-21T00:44:50.193Z,17.01
2018-06-21T00:46:50.332Z,16.97
2018-06-21T00:48:50.417Z,17.00
2018-06-21T00:50:50.431Z,17.00
2018-06-21T00:52:50.533Z,16.99
2018-06-21T00:54:50.579Z,16.92
2018-06-21T00:56:50.811Z,16.82
2018-06-21T00:58:50.831Z,16.81
2018-06-21T01:00:50.882Z,16.80
2018-06-21T01:02:49.926Z,16.79
2018-06-21T01:04:50.299Z,16.80
2018-06-21T01:06:50.539Z,16.80
2018-06-21T01:08:50.697Z,16.76
2018-06-21T01:18:59.044Z,16.73
2018-06-21T01:20:50.087Z,16.69
2018-06-21T01:22:50.157Z,16.65
2018-06-21T01:24:50.219Z,16.65
2018-06-21T01:26:50.297Z,16.63
2018-06-21T01:28:50.320Z,16.63
2018-06-21T01:30:50.484Z,16.65
2018-06-21T01:32:50.661Z,16.63
2018-06-21T01:34:50.843Z,16.61
2018-06-21T01:36:50.044Z,16.58
2018-06-21T01:38:50.099Z,16.55
2018-06-21T01:40:50.125Z,16.52
2018-06-21T01:42:50.160Z,16.51
2018-06-21T01:44:50.184Z,16.50
2018-06-21T01:46:50.267Z,16.49
2018-06-21T01:48:50.306Z,16.48
2018-06-21T01:50:50.367Z,16.45
2018-06-21T01:52:50.381Z,16.42
2018-06-21T01:54:50.452Z,16.37
2018-06-21T01:56:50.469Z,16.34
2018-06-21T01:58:50.507Z,16.33
2018-06-21T02:00:50.504Z,16.31
2018-06-21T02:02:50.533Z,16.29
2018-06-21T02:04:49.963Z,16.26
2018-06-21T02:06:50.048Z,16.24
2018-06-21T02:08:49.917Z,16.22
2018-06-21T02:10:49.995Z,16.18
2018-06-21T02:12:50.023Z,16.20
2018-06-21T02:14:50.159Z,16.21
2018-06-21T02:16:50.175Z,16.18
2018-06-21T02:18:50.259Z,16.17
2018-06-21T02:20:50.324Z,16.15
2018-06-21T02:22:50.450Z,16.14
2018-06-21T02:24:50.498Z,16.11
2018-06-21T02:26:50.688Z,16.08
2018-06-21T02:28:50.702Z,16.04
2018-06-21T02:30:50.783Z,16.03
2018-06-21T02:32:50.814Z,16.00
2018-06-21T02:34:50.007Z,15.97
2018-06-21T02:36:50.099Z,15.94
2018-06-21T02:38:50.183Z,15.93
2018-06-21T02:40:50.187Z,15.92
2018-06-21T02:42:50.286Z,15.92
2018-06-21T02:44:50.356Z,15.91
2018-06-21T02:46:50.290Z,15.88
2018-06-21T02:48:50.307Z,15.89
2018-06-21T02:50:50.365Z,15.90
2018-06-21T02:52:50.391Z,15.92
2018-06-21T02:54:50.498Z,15.90
2018-06-21T02:56:50.583Z,15.87
2018-06-21T02:58:50.698Z,15.85
2018-06-21T03:00:50.784Z,15.85
2018-06-21T03:02:50.887Z,15.83
2018-06-21T03:04:50.178Z,15.79
2018-06-21T03:06:50.262Z,15.78
2018-06-21T03:08:50.314Z,15.75
2018-06-21T03:10:50.408Z,15.74
2018-06-21T03:12:50.442Z,15.73
2018-06-21T03:14:50.521Z,15.71
2018-06-21T03:16:50.593Z,15.71
2018-06-21T03:18:50.665Z,15.71
2018-06-21T03:20:50.694Z,15.71
2018-06-21T03:22:50.775Z,15.73
2018-06-21T03:24:50.816Z,15.73
2018-06-21T03:26:49.927Z,15.70
2018-06-21T03:28:49.948Z,15.68
2018-06-21T03:30:49.988Z,15.72
2018-06-21T03:32:50.072Z,15.72
2018-06-21T03:34:50.314Z,15.72
2018-06-21T03:36:50.429Z,15.83
2018-06-21T03:38:50.446Z,15.87
2018-06-21T03:40:50.530Z,15.96
2018-06-21T03:42:50.541Z,16.00
2018-06-21T03:44:50.612Z,16.11
2018-06-21T03:46:50.725Z,16.16
2018-06-21T03:48:50.596Z,16.24
2018-06-21T03:50:50.462Z,16.31
2018-06-21T03:52:50.340Z,16.36
2018-06-21T03:54:50.156Z,16.36
2018-06-21T04:06:50.364Z,16.89
2018-06-21T04:08:50.408Z,16.93
2018-06-21T04:10:50.429Z,17.05
2018-06-21T04:12:50.500Z,17.10
2018-06-21T04:14:50.350Z,17.25
2018-06-21T04:16:50.231Z,17.33
2018-06-21T04:18:50.239Z,17.37
2018-06-21T04:20:50.332Z,17.47
2018-06-21T04:22:50.396Z,17.50
2018-06-21T04:24:50.421Z,17.54
2018-06-21T04:26:50.490Z,17.61
2018-06-21T04:28:50.545Z,17.66
2018-06-21T04:30:50.546Z,17.70
2018-06-21T04:32:50.677Z,17.73
2018-06-21T04:34:50.029Z,17.74
2018-06-21T04:36:50.226Z,17.79
2018-06-21T04:38:50.276Z,17.80
2018-06-21T04:40:50.317Z,17.82
2018-06-21T04:42:50.373Z,17.89
2018-06-21T04:44:50.438Z,17.94
2018-06-21T04:46:50.443Z,18.06
2018-06-21T04:48:50.528Z,18.12
2018-06-21T04:50:50.559Z,18.21
2018-06-21T04:52:50.583Z,18.29
2018-06-21T04:54:50.604Z,18.48
2018-06-21T04:56:50.667Z,18.59
2018-06-21T04:58:50.708Z,18.65
2018-06-21T05:00:50.764Z,18.78
2018-06-21T05:02:50.797Z,18.88
2018-06-21T05:04:50.016Z,18.88
2018-06-21T05:06:50.170Z,19.12
2018-06-21T05:08:50.226Z,19.19
2018-06-21T05:10:50.244Z,19.37
2018-06-21T05:12:50.356Z,19.46
2018-06-21T05:14:50.369Z,19.61
2018-06-21T05:16:50.439Z,19.72
2018-06-21T05:18:50.513Z,19.85
2018-06-21T05:20:50.524Z,20.00
2018-06-21T05:22:50.566Z,20.09
2018-06-21T05:24:50.791Z,20.21
2018-06-21T05:26:50.866Z,20.29
2018-06-21T05:28:49.874Z,20.37
2018-06-21T05:30:49.976Z,20.43
2018-06-21T05:32:50.049Z,20.56
2018-06-21T05:34:50.278Z,20.73
2018-06-21T05:36:50.880Z,20.83
2018-06-21T05:38:49.968Z,21.02
2018-06-21T05:40:50.044Z,21.11
2018-06-21T05:42:50.129Z,21.16
2018-06-21T05:44:50.143Z,21.28
2018-06-21T05:46:50.373Z,21.36
2018-06-21T05:48:50.412Z,21.54
2018-06-21T05:50:50.472Z,21.63
2018-06-21T05:52:50.497Z,21.84
2018-06-21T05:54:50.648Z,21.93
2018-06-21T05:56:50.800Z,22.15
2018-06-21T05:58:50.844Z,22.15
2018-06-21T06:00:50.853Z,22.23
2018-06-21T06:02:50.875Z,22.30
2018-06-21T06:04:50.189Z,22.27
2018-06-21T06:06:50.303Z,22.27
2018-06-21T06:08:50.402Z,22.36
2018-06-21T06:10:50.457Z,22.51
2018-06-21T06:12:50.502Z,22.59
2018-06-21T06:14:50.555Z,22.71
2018-06-21T06:16:50.696Z,22.78
2018-06-21T06:18:50.773Z,22.85
2018-06-21T06:20:50.903Z,22.88
2018-06-21T06:22:49.970Z,22.99
2018-06-21T06:24:50.030Z,23.02
2018-06-21T06:26:50.206Z,23.16
2018-06-21T06:28:50.268Z,23.23
2018-06-21T06:30:50.320Z,23.32
2018-06-21T06:32:50.427Z,23.45
2018-06-21T06:34:50.715Z,23.46
2018-06-21T06:36:49.955Z,23.47
2018-06-21T06:38:49.992Z,23.54
2018-06-21T06:40:50.339Z,23.66
2018-06-21T06:42:50.384Z,23.69
2018-06-21T06:44:50.478Z,23.58
2018-06-21T06:46:50.666Z,23.55
2018-06-21T06:48:50.759Z,23.57
2018-06-21T06:50:50.821Z,23.98
2018-06-21T06:52:49.944Z,24.17
2018-06-21T06:54:50.942Z,24.36
2018-06-21T06:56:50.174Z,24.6
2018-06-21T06:58:50.296Z,24.70
2018-06-21T07:00:50.484Z,24.76
2018-06-21T07:02:50.552Z,24.9
2018-06-21T07:04:50.818Z,25.0
2018-06-21T07:06:49.954Z,25.2
2018-06-21T07:08:49.982Z,25.4
2018-06-21T07:10:50.249Z,25.29
2018-06-21T07:12:50.322Z,25.36
2018-06-21T07:14:50.467Z,25.49
2018-06-21T07:16:50.675Z,25.57
2018-06-21T07:18:50.849Z,25.56
2018-06-21T07:20:49.918Z,25.63
2018-06-21T07:22:49.944Z,25.7
2018-06-21T07:24:50.067Z,25.7
2018-06-21T07:26:50.238Z,25.76
2018-06-21T07:28:50.330Z,25.77
2018-06-21T07:30:50.408Z,25.82
2018-06-21T07:32:50.547Z,25.9
2018-06-21T07:34:50.751Z,25.9
2018-06-21T07:36:50.848Z,26.0
2018-06-21T07:38:51.251Z,26.1
2018-06-21T07:40:50.314Z,26.1
2018-06-21T07:42:50.370Z,26.1
2018-06-21T07:44:50.434Z,26.08
2018-06-21T07:46:51.107Z,26.14
2018-06-21T07:48:50.154Z,26.3
2018-06-21T07:50:50.253Z,26.3
2018-06-21T07:52:50.302Z,26.3
2018-06-21T07:54:50.323Z,26.4
2018-06-21T07:56:50.435Z,26.4
2018-06-21T07:58:50.548Z,26.6
2018-06-21T08:00:50.604Z,26.6
2018-06-21T08:02:50.729Z,26.8
2018-06-21T08:04:49.946Z,27.0
2018-06-21T08:06:50.119Z,27.2
2018-06-21T08:08:50.180Z,27.3
2018-06-21T08:10:50.229Z,27.3
2018-06-21T08:12:50.535Z,27.5
2018-06-21T08:14:50.813Z,27.6
2018-06-21T08:16:50.024Z,27.55
2018-06-21T08:18:50.103Z,27.46
2018-06-21T08:20:50.213Z,27.39
2018-06-21T08:22:50.342Z,27.44
2018-06-21T08:24:50.407Z,27.43
2018-06-21T08:26:51.241Z,27.43
2018-06-21T08:28:50.515Z,27.61
2018-06-21T08:30:50.607Z,27.52
2018-06-21T08:32:50.864Z,27.53
2018-06-21T08:34:50.105Z,27.56
2018-06-21T08:36:50.234Z,27.31
2018-06-21T08:38:50.332Z,27.15
2018-06-21T08:40:50.428Z,27.19
2018-06-21T08:42:50.490Z,27.38
2018-06-21T08:44:50.523Z,27.57
2018-06-21T08:46:50.710Z,27.58
2018-06-21T08:48:50.752Z,27.25
2018-06-21T08:50:50.784Z,27.06
2018-06-21T08:52:50.860Z,26.97
2018-06-21T08:54:50.045Z,27.06
2018-06-21T08:56:50.303Z,27.30
2018-06-21T08:58:50.396Z,27.47
2018-06-21T09:00:50.561Z,27.71
2018-06-21T09:02:50.626Z,27.71
2018-06-21T09:04:50.829Z,28.2
2018-06-21T09:06:50.022Z,28.2
2018-06-21T09:08:50.112Z,28.02
2018-06-21T09:10:50.139Z,27.82
2018-06-21T09:12:50.280Z,27.64
2018-06-21T09:14:50.307Z,27.41
2018-06-21T09:16:50.456Z,27.29
2018-06-21T09:18:50.654Z,27.30
2018-06-21T09:20:50.822Z,27.21
2018-06-21T09:22:50.817Z,27.03
2018-06-21T09:24:49.908Z,27.18
2018-06-21T09:26:50.236Z,27.51
2018-06-21T09:28:50.304Z,27.80
2018-06-21T09:30:50.392Z,28.00
2018-06-21T09:32:50.428Z,28.09
2018-06-21T09:34:50.672Z,28.17
2018-06-21T09:36:49.943Z,28.17
2018-06-21T09:38:49.952Z,28.38
2018-06-21T09:40:49.984Z,28.38
2018-06-21T09:42:49.969Z,28.02
2018-06-21T09:44:50.047Z,28.22
2018-06-21T09:46:50.247Z,28.38
2018-06-21T09:48:50.393Z,28.57
2018-06-21T09:50:50.434Z,28.59
2018-06-21T09:52:50.617Z,28.47
2018-06-21T09:54:50.712Z,28.01
2018-06-21T09:56:50.856Z,27.92
2018-06-21T09:58:49.935Z,27.80
2018-06-21T10:00:50.050Z,27.93
2018-06-21T10:02:50.026Z,28.00
2018-06-21T10:04:50.261Z,28.15
2018-06-21T10:06:50.449Z,28.44
2018-06-21T10:08:50.511Z,28.48
2018-06-21T10:10:50.515Z,28.46
2018-06-21T10:12:50.730Z,28.46
2018-06-21T10:14:49.907Z,28.30
2018-06-21T10:16:50.167Z,28.15
2018-06-21T10:18:50.217Z,28.21
2018-06-21T10:20:50.246Z,28.18
2018-06-21T10:22:50.367Z,27.98
2018-06-21T10:24:50.413Z,28.00
2018-06-21T10:26:50.623Z,27.86
2018-06-21T10:28:50.638Z,27.60
2018-06-21T10:30:50.711Z,27.56
2018-06-21T10:32:50.861Z,27.39
2018-06-21T10:34:50.076Z,27.71
2018-06-21T10:36:50.254Z,28.38
2018-06-21T10:38:50.365Z,28.7
2018-06-21T10:40:50.576Z,28.8
2018-06-21T10:42:50.566Z,28.65
2018-06-21T10:44:50.644Z,28.44
2018-06-21T10:46:50.791Z,28.48
2018-06-21T10:48:49.927Z,28.64
2018-06-21T10:50:49.983Z,28.33
2018-06-21T10:52:50.018Z,27.78
2018-06-21T10:54:50.079Z,27.47
2018-06-21T10:56:50.233Z,27.47
2018-06-21T10:58:50.287Z,27.94
2018-06-21T11:00:50.294Z,27.61
2018-06-21T11:02:50.366Z,27.85
2018-06-21T11:04:50.584Z,28.09
2018-06-21T11:06:50.784Z,27.83
2018-06-21T11:08:50.850Z,27.54
2018-06-21T11:10:49.979Z,28.01
2018-06-21T11:12:50.011Z,28.40
2018-06-21T11:14:50.554Z,28.6
2018-06-21T11:16:51.089Z,28.56
2018-06-21T11:18:50.132Z,28.34
2018-06-21T11:20:50.267Z,28.14
2018-06-21T11:22:50.311Z,28.00
2018-06-21T11:24:50.385Z,27.75
2018-06-21T11:26:50.511Z,27.80
2018-06-21T11:28:50.564Z,27.98
2018-06-21T11:30:50.583Z,28.23
2018-06-21T11:32:50.689Z,28.11
2018-06-21T11:34:49.885Z,28.35
2018-06-21T11:36:50.094Z,28.35
2018-06-21T11:38:50.155Z,28.58
2018-06-21T11:40:50.224Z,28.06
2018-06-21T11:42:50.290Z,27.66
2018-06-21T11:44:50.669Z,27.56
2018-06-21T11:46:50.815Z,27.49
2018-06-21T11:48:50.202Z,27.32
2018-06-21T11:50:50.256Z,27.33
2018-06-21T11:52:50.315Z,27.51
2018-06-21T11:54:50.398Z,27.59
2018-06-21T11:56:50.679Z,27.59
2018-06-21T11:58:50.795Z,27.68
2018-06-21T12:00:50.884Z,27.40
2018-06-21T12:02:49.990Z,27.36
2018-06-21T12:04:50.244Z,27.75
2018-06-21T12:06:50.419Z,27.59
2018-06-21T12:08:51.084Z,27.48
2018-06-21T12:10:50.143Z,27.57
2018-06-21T12:12:50.178Z,27.87
2018-06-21T12:14:50.371Z,27.55
2018-06-21T12:16:50.404Z,27.47
2018-06-21T12:18:50.493Z,27.40
2018-06-21T12:20:50.974Z,27.52
2018-06-21T12:22:50.118Z,27.64
2018-06-21T12:24:50.328Z,27.62
2018-06-21T12:26:50.563Z,27.69
2018-06-21T12:28:50.637Z,27.6
2018-06-21T12:30:50.706Z,27.7
2018-06-21T12:32:50.735Z,27.7
2018-06-21T12:34:50.245Z,27.7
2018-06-21T12:36:50.337Z,27.64
2018-06-21T12:38:50.344Z,27.63
2018-06-21T12:40:50.520Z,27.27
2018-06-21T12:42:50.547Z,26.94
2018-06-21T12:44:50.636Z,27.02
2018-06-21T12:46:50.772Z,27.24
2018-06-21T12:48:50.856Z,27.51
2018-06-21T12:50:49.963Z,27.45
2018-06-21T12:52:50.047Z,27.7
2018-06-21T12:54:50.156Z,27.8
2018-06-21T12:56:50.347Z,27.8
2018-06-21T12:58:50.390Z,27.8
2018-06-21T13:00:50.488Z,27.29
2018-06-21T13:02:50.818Z,27.12
2018-06-21T13:04:50.001Z,27.19
2018-06-21T13:06:50.261Z,27.21
2018-06-21T13:08:50.276Z,27.20
2018-06-21T13:10:50.334Z,27.14
2018-06-21T13:12:50.591Z,27.13
2018-06-21T13:14:50.601Z,27.01
2018-06-21T13:16:50.728Z,27.34
2018-06-21T13:18:50.755Z,27.11
2018-06-21T13:20:50.806Z,27.10
2018-06-21T13:22:50.876Z,27.14
2018-06-21T13:24:49.942Z,27.42
2018-06-21T13:26:49.995Z,26.96
2018-06-21T13:28:50.051Z,26.57
2018-06-21T13:30:50.102Z,26.32
2018-06-21T13:32:50.231Z,25.95
2018-06-21T13:34:50.659Z,25.95
2018-06-21T13:36:49.898Z,25.37
2018-06-21T13:38:49.954Z,25.17
2018-06-21T13:40:50.034Z,24.88
2018-06-21T13:42:50.049Z,24.56
2018-06-21T13:44:50.151Z,24.56
2018-06-21T13:50:50.195Z,25.03
2018-06-21T13:52:50.247Z,25.11
2018-06-21T13:54:50.332Z,25.11
2018-06-21T13:56:50.460Z,25.09
2018-06-21T13:58:50.489Z,25.34
2018-06-21T14:00:50.518Z,25.59
2018-06-21T14:02:50.548Z,25.64
2018-06-21T14:04:49.922Z,25.94
2018-06-21T14:06:49.995Z,25.77
2018-06-21T14:08:50.102Z,25.79
2018-06-21T14:10:50.363Z,25.77
2018-06-21T14:12:50.989Z,25.38
2018-06-21T14:14:50.663Z,25.14
2018-06-21T14:16:50.081Z,24.42
2018-06-21T14:18:50.106Z,24.21
2018-06-21T14:20:50.616Z,24.01
2018-06-21T14:22:50.851Z,23.84
2018-06-21T14:24:49.859Z,23.80
2018-06-21T14:26:49.991Z,23.95
2018-06-21T14:28:50.152Z,24.14
2018-06-21T14:30:50.188Z,24.13
2018-06-21T14:32:50.300Z,23.83
2018-06-21T14:34:50.482Z,23.63
2018-06-21T14:36:50.704Z,23.45
2018-06-21T14:38:50.738Z,23.89
2018-06-21T14:40:50.819Z,24.19
2018-06-21T14:42:49.892Z,24.39
2018-06-21T14:44:49.887Z,24.95
2018-06-21T14:46:49.982Z,25.5
2018-06-21T14:48:50.490Z,25.6
2018-06-21T14:50:50.585Z,25.7
2018-06-21T14:52:50.622Z,25.8
2018-06-21T14:54:50.655Z,25.8
2018-06-21T14:56:50.756Z,25.75
2018-06-21T14:58:50.830Z,25.34
2018-06-21T15:00:50.924Z,24.73
2018-06-21T15:02:50.010Z,24.24
2018-06-21T15:04:50.346Z,24.25
2018-06-21T15:06:50.480Z,24.62
2018-06-21T15:08:50.731Z,24.51
2018-06-21T15:10:50.825Z,24.51
2018-06-21T15:12:49.980Z,24.88
2018-06-21T15:14:50.288Z,25.20
2018-06-21T15:16:50.575Z,25.13
2018-06-21T15:18:50.901Z,24.42
2018-06-21T15:20:49.993Z,24.09
2018-06-21T15:22:50.054Z,23.76
2018-06-21T15:24:50.206Z,24.05
2018-06-21T15:26:50.400Z,24.56
2018-06-21T15:28:50.473Z,24.48
2018-06-21T15:30:50.573Z,24.03
2018-06-21T15:32:50.622Z,23.17
2018-06-21T15:34:49.942Z,22.98
2018-06-21T15:36:50.182Z,22.84
2018-06-21T15:38:50.276Z,22.97
2018-06-21T15:40:50.282Z,23.19
2018-06-21T15:42:50.353Z,23.89
2018-06-21T15:44:50.382Z,23.91
2018-06-21T15:46:50.603Z,23.91
2018-06-21T15:48:50.636Z,23.38
2018-06-21T15:50:50.736Z,23.27
2018-06-21T15:52:50.807Z,23.09
2018-06-21T15:54:50.841Z,23.01
2018-06-21T15:56:50.051Z,22.64
2018-06-21T15:58:50.130Z,22.45
2018-06-21T16:00:50.209Z,22.24
2018-06-21T16:02:50.256Z,22.14
2018-06-21T16:04:50.481Z,22.03
2018-06-21T16:06:50.723Z,22.09
2018-06-21T16:08:51.157Z,22.15
2018-06-21T16:10:50.192Z,22.33
2018-06-21T16:12:50.438Z,23.04
2018-06-21T16:14:50.494Z,24.00
2018-06-21T16:16:50.756Z,24.1
2018-06-21T16:18:50.832Z,24.2
2018-06-21T16:20:49.961Z,24.2
2018-06-21T16:22:50.462Z,24.2
2018-06-21T16:24:50.645Z,24.2
2018-06-21T16:26:50.830Z,24.3
2018-06-21T16:28:49.980Z,24.4
2018-06-21T16:30:50.064Z,24.4
2018-06-21T16:32:50.141Z,24.4
2018-06-21T16:34:50.482Z,24.5
2018-06-21T16:36:50.678Z,24.5
2018-06-21T16:38:50.767Z,24.5
2018-06-21T16:40:51.051Z,24.6
2018-06-21T16:42:50.117Z,24.6
2018-06-21T16:44:50.172Z,24.6
2018-06-21T16:46:50.431Z,24.8
2018-06-21T16:48:50.530Z,24.8
2018-06-21T16:50:50.627Z,24.8
2018-06-21T16:52:50.822Z,24.9
2018-06-21T16:54:50.884Z,25.0
2018-06-21T16:56:50.114Z,25.0
2018-06-21T16:58:50.183Z,25.0
2018-06-21T17:00:50.291Z,25.1
2018-06-21T17:02:50.376Z,25.1
2018-06-21T17:04:50.687Z,25.1
2018-06-21T17:06:50.838Z,25.1
2018-06-21T17:08:49.902Z,25.2
2018-06-21T17:10:50.018Z,25.2
2018-06-21T17:12:50.077Z,25.2
2018-06-21T17:14:50.172Z,25.2
2018-06-21T17:16:50.339Z,24.40
2018-06-21T17:18:50.461Z,23.78
2018-06-21T17:20:50.523Z,23.25
2018-06-21T17:22:50.639Z,23.06
2018-06-21T17:24:50.665Z,22.57
2018-06-21T17:26:49.933Z,22.26
2018-06-21T17:28:50.075Z,22.12
2018-06-21T17:30:50.103Z,22.01
2018-06-21T17:32:50.192Z,21.77
2018-06-21T17:34:50.397Z,21.64
2018-06-21T17:36:50.867Z,21.61
2018-06-21T17:38:50.039Z,21.43
2018-06-21T17:40:50.083Z,21.30
2018-06-21T17:42:50.169Z,21.24
2018-06-21T17:44:50.212Z,21.23
2018-06-21T17:46:50.456Z,21.21
2018-06-21T17:48:50.629Z,21.18
2018-06-21T17:50:50.690Z,21.05
2018-06-21T17:52:50.752Z,20.93
2018-06-21T17:54:50.828Z,20.93
2018-06-21T17:56:50.076Z,20.83
2018-06-21T17:58:50.288Z,20.74
2018-06-21T18:00:50.350Z,20.71
2018-06-21T18:02:50.403Z,20.67
2018-06-21T18:04:50.652Z,20.62
2018-06-21T18:06:50.005Z,20.56
2018-06-21T18:08:50.125Z,20.50
2018-06-21T18:10:50.694Z,20.47
2018-06-21T18:12:49.916Z,20.45
2018-06-21T18:14:50.013Z,20.45
2018-06-21T18:16:50.187Z,20.47
2018-06-21T18:18:50.288Z,20.43
2018-06-21T18:20:50.289Z,20.37
2018-06-21T18:22:50.312Z,20.33
2018-06-21T18:24:50.415Z,20.26
2018-06-21T18:26:50.605Z,20.13
2018-06-21T18:28:50.894Z,20.11
2018-06-21T18:30:50.113Z,20.07
2018-06-21T18:32:50.178Z,20.06
2018-06-21T18:34:50.538Z,20.06
2018-06-21T18:36:50.832Z,20.01
2018-06-21T18:38:49.923Z,20.01
2018-06-21T18:40:50.018Z,19.96
2018-06-21T18:42:50.091Z,19.91
2018-06-21T18:44:50.258Z,19.89
2018-06-21T18:46:50.493Z,19.85
2018-06-21T18:48:50.632Z,19.79
2018-06-21T18:50:50.716Z,19.76
2018-06-21T18:52:51.044Z,19.73
2018-06-21T18:54:50.166Z,19.66
2018-06-21T18:56:50.336Z,19.63
2018-06-21T18:58:51.001Z,19.57
2018-06-21T19:00:50.255Z,19.50
2018-06-21T19:02:50.417Z,19.42
2018-06-21T19:04:50.854Z,19.41
2018-06-21T19:06:50.078Z,19.37
2018-06-21T19:08:50.154Z,19.33
2018-06-21T19:10:50.764Z,19.33
2018-06-21T19:12:50.023Z,19.28
2018-06-21T19:14:50.080Z,19.22
2018-06-21T19:16:50.220Z,19.19
2018-06-21T19:18:50.262Z,19.14
2018-06-21T19:20:50.356Z,19.11
2018-06-21T19:22:50.375Z,19.07
2018-06-21T19:24:50.531Z,19.02
2018-06-21T19:26:50.645Z,18.97
2018-06-21T19:28:50.743Z,18.93
2018-06-21T19:30:50.814Z,18.93
2018-06-21T19:32:49.941Z,18.88
2018-06-21T19:34:50.206Z,18.83
2018-06-21T19:36:50.410Z,18.82
2018-06-21T19:38:50.510Z,18.75
2018-06-21T19:40:50.553Z,18.73
2018-06-21T19:42:50.656Z,18.64
2018-06-21T19:44:50.683Z,18.61
2018-06-21T19:46:50.829Z,18.54
2018-06-21T19:48:49.894Z,18.52
2018-06-21T19:50:50.015Z,18.39
2018-06-21T19:52:50.084Z,18.31
2018-06-21T19:54:50.153Z,18.28
2018-06-21T19:56:50.311Z,18.20
2018-06-21T19:58:50.438Z,18.17
2018-06-21T20:00:50.496Z,18.09
2018-06-21T20:02:50.526Z,18.09
2018-06-21T20:04:50.446Z,17.95
2018-06-21T20:06:50.655Z,17.83
2018-06-21T20:08:50.749Z,17.77
2018-06-21T20:10:50.804Z,17.70
2018-06-21T20:12:51.356Z,17.70
2018-06-21T20:14:50.531Z,17.45
2018-06-21T20:16:50.861Z,17.39
2018-06-21T20:18:49.888Z,17.29
2018-06-21T20:20:49.991Z,17.28
2018-06-21T20:22:50.049Z,17.17
2018-06-21T20:24:50.056Z,17.04
2018-06-21T20:26:50.199Z,17.03
2018-06-21T20:28:50.278Z,16.97
2018-06-21T20:30:50.413Z,16.99
2018-06-21T20:32:50.487Z,16.99
2018-06-21T20:34:49.873Z,16.82
2018-06-21T20:36:50.113Z,16.77
2018-06-21T20:38:50.183Z,16.59
2018-06-21T20:40:50.275Z,16.58
2018-06-21T20:42:50.311Z,16.54
2018-06-21T20:44:50.370Z,16.46
2018-06-21T20:46:50.705Z,16.45
2018-06-21T20:48:50.771Z,16.30
2018-06-21T20:50:50.867Z,16.25
2018-06-21T20:52:49.898Z,16.25
2018-06-21T20:54:49.922Z,16.22
2018-06-21T20:56:50.612Z,16.16
2018-06-21T20:58:50.812Z,16.02
2018-06-21T21:00:50.094Z,15.99
2018-06-21T21:02:50.141Z,15.87
2018-06-21T21:04:50.537Z,15.86
2018-06-21T21:06:50.761Z,15.83
2018-06-21T21:08:50.813Z,15.70
2018-06-21T21:10:50.897Z,15.66
2018-06-21T21:12:50.023Z,15.58
2018-06-21T21:14:50.096Z,15.56
2018-06-21T21:16:50.434Z,15.52
2018-06-21T21:18:50.540Z,15.46
2018-06-21T21:20:50.692Z,15.38
2018-06-21T21:22:50.840Z,15.36
2018-06-21T21:24:49.974Z,15.35
2018-06-21T21:26:50.192Z,15.30
2018-06-21T21:28:50.858Z,15.29
2018-06-21T21:30:50.077Z,15.20
2018-06-21T21:32:50.179Z,15.08
2018-06-21T21:34:50.436Z,15.04
2018-06-21T21:36:50.624Z,14.95
2018-06-21T21:38:50.718Z,14.90
2018-06-21T21:40:50.810Z,14.83
2018-06-21T21:42:50.855Z,14.83
2018-06-21T21:44:49.982Z,14.83
2018-06-21T21:46:50.287Z,14.80
2018-06-21T21:48:50.327Z,14.68
2018-06-21T21:50:50.421Z,14.62
2018-06-21T21:52:50.500Z,14.54
2018-06-21T21:54:50.663Z,14.54
2018-06-21T21:56:50.797Z,14.46
2018-06-21T21:58:50.892Z,14.37
2018-06-21T22:00:50.099Z,14.37
2018-06-21T22:02:50.136Z,14.28
2018-06-21T22:04:50.438Z,14.28
2018-06-21T22:06:50.650Z,14.24
2018-06-21T22:08:50.713Z,14.17
2018-06-21T22:10:50.789Z,14.11
2018-06-21T22:12:51.192Z,13.98
2018-06-21T22:14:50.344Z,13.96
2018-06-21T22:16:50.479Z,13.95
2018-06-21T22:18:50.545Z,13.86
2018-06-21T22:20:50.659Z,13.85
2018-06-21T22:22:50.721Z,13.81
2018-06-21T22:24:50.842Z,13.80
2018-06-21T22:26:50.012Z,13.72
2018-06-21T22:28:50.232Z,13.68
2018-06-21T22:30:50.304Z,13.62
2018-06-21T22:32:50.330Z,13.57
2018-06-21T22:34:50.531Z,13.51
2018-06-21T22:36:50.863Z,13.49
2018-06-21T22:38:50.035Z,13.49
2018-06-21T22:40:50.128Z,13.35
2018-06-21T22:42:50.273Z,13.29
2018-06-21T22:44:50.738Z,13.36
2018-06-21T22:46:49.989Z,13.37
2018-06-21T22:48:50.062Z,13.36
2018-06-21T22:50:50.087Z,13.33
2018-06-21T22:52:50.190Z,13.29
2018-06-21T22:54:50.242Z,13.29
2018-06-21T22:56:50.600Z,13.25
2018-06-21T22:58:50.672Z,13.24
2018-06-21T23:00:50.748Z,13.24
2018-06-21T23:02:50.820Z,13.14
2018-06-21T23:04:50.083Z,13.09
2018-06-21T23:06:50.243Z,13.06
2018-06-21T23:08:50.449Z,13.08
2018-06-21T23:10:50.505Z,13.08
2018-06-21T23:12:50.646Z,13.00
2018-06-21T23:14:50.745Z,12.94
2018-06-21T23:16:50.053Z,12.97
2018-06-21T23:18:50.178Z,12.96
2018-06-21T23:20:50.686Z,12.87
2018-06-21T23:22:50.772Z,12.84
2018-06-21T23:24:50.855Z,12.77
2018-06-21T23:26:50.901Z,12.69
2018-06-21T23:28:50.121Z,12.67
2018-06-21T23:30:50.156Z,12.63
2018-06-21T23:32:50.264Z,12.60
2018-06-21T23:34:50.478Z,12.51
2018-06-21T23:36:50.759Z,12.38
2018-06-21T23:38:50.789Z,12.35
2018-06-21T23:40:49.881Z,12.30
2018-06-21T23:42:49.929Z,12.28
2018-06-21T23:44:49.973Z,12.25
2018-06-21T23:46:50.214Z,12.25
2018-06-21T23:48:50.281Z,12.26
2018-06-21T23:50:50.380Z,12.22
2018-06-21T23:52:50.446Z,12.18
2018-06-21T23:54:50.498Z,12.12
2018-06-21T23:56:50.635Z,12.08
2018-06-21T23:58:50.742Z,11.97
